Time;durP1;ratioP1;P1;durP2;ratioP2;P2;SDS_P1;SDS_P2;PMS_P1;PMS_P2;Temp;Humidity;BMP_temperature;BMP_pressure;BME280_temperature;BME280_humidity;BME280_pressure;Samples;Min_cycle;Max_cycle;Signal;HPM_P1;HPM_P2
2022/03/28 00:02:14;;;;;;;7.97;4.70;;;;;;;9.91;61.86;99825.47;5132992;27;41693;-73
2022/03/28 00:04:42;;;;;;;7.97;4.20;;;;;;;9.88;61.07;99826.50;5133228;27;42863;-73
2022/03/28 00:07:10;;;;;;;5.47;3.57;;;;;;;9.86;60.94;99832.78;5114541;27;42016;-73
2022/03/28 00:09:37;;;;;;;4.90;3.73;;;;;;;9.82;61.66;99824.09;5114697;27;40970;-75
2022/03/28 00:12:06;;;;;;;6.23;4.23;;;;;;;9.80;62.27;99815.38;5113537;27;41747;-76
2022/03/28 00:14:33;;;;;;;11.30;5.13;;;;;;;9.71;61.45;99823.72;5133195;27;43867;-76
2022/03/28 00:17:03;;;;;;;6.47;4.50;;;;;;;9.71;61.15;99824.59;5114286;27;42299;-74
2022/03/28 00:19:30;;;;;;;7.10;4.60;;;;;;;9.68;61.12;99832.63;5114172;27;39961;-76
2022/03/28 00:21:57;;;;;;;5.70;3.87;;;;;;;9.65;60.77;99830.13;5132796;27;41634;-74
2022/03/28 00:24:25;;;;;;;4.03;3.13;;;;;;;9.62;61.05;99830.28;5114507;27;42563;-76
2022/03/28 00:26:54;;;;;;;5.23;3.33;;;;;;;9.57;61.75;99826.97;5114245;27;41152;-73
2022/03/28 00:29:23;;;;;;;5.63;4.10;;;;;;;9.48;63.99;99800.91;5132785;27;42003;-76
2022/03/28 00:31:51;;;;;;;6.57;3.80;;;;;;;9.50;62.94;99820.22;5113281;27;41780;-74
2022/03/28 00:34:21;;;;;;;5.70;4.03;;;;;;;9.46;62.61;99821.28;5114137;27;42525;-74
2022/03/28 00:36:50;;;;;;;5.40;3.80;;;;;;;9.42;62.42;99814.38;5132555;27;42955;-76
2022/03/28 00:39:19;;;;;;;5.60;4.03;;;;;;;9.38;62.01;99814.59;5114372;27;39989;-74
2022/03/28 00:41:47;;;;;;;6.00;3.97;;;;;;;9.25;62.68;99798.41;5132551;27;41790;-75
2022/03/28 00:44:15;;;;;;;6.63;4.00;;;;;;;9.27;62.55;99807.13;5113975;27;42021;-73
2022/03/28 00:46:45;;;;;;;5.70;4.10;;;;;;;9.26;62.60;99805.41;5132420;27;43075;-75
2022/03/28 00:49:13;;;;;;;6.30;4.43;;;;;;;9.23;64.48;99792.31;5113701;27;40326;-74
2022/03/28 00:51:42;;;;;;;6.13;4.23;;;;;;;9.21;64.37;99802.06;5132364;27;42766;-73
2022/03/28 00:54:10;;;;;;;6.97;5.10;;;;;;;9.17;63.51;99800.47;5132410;27;44220;-75
2022/03/28 00:56:40;;;;;;;8.50;5.00;;;;;;;9.13;63.11;99799.75;5131967;27;43334;-73
2022/03/28 00:59:08;;;;;;;6.40;4.30;;;;;;;9.09;62.62;99806.09;5132411;27;41028;-73
2022/03/28 01:01:36;;;;;;;6.03;4.00;;;;;;;8.98;62.22;99795.97;5113577;27;41265;-74
2022/03/28 01:04:08;;;;;;;5.67;4.50;;;;;;;9.00;62.26;99802.06;5112498;27;43814;-76
2022/03/28 01:06:37;;;;;;;6.43;4.13;;;;;;;8.96;62.23;99808.38;5113681;27;41226;-73
2022/03/28 01:09:07;;;;;;;5.03;3.20;;;;;;;8.91;62.28;99796.25;5096596;27;40429;-74
2022/03/28 01:11:35;;;;;;;4.70;3.37;;;;;;;8.84;62.65;99793.03;5131063;27;41806;-74
2022/03/28 01:14:03;;;;;;;5.50;3.87;;;;;;;8.84;62.88;99798.31;5132188;27;42798;-77
2022/03/28 01:16:31;;;;;;;5.27;4.03;;;;;;;8.81;63.09;99793.13;5113673;27;42804;-77
2022/03/28 01:19:18;;;;;;;5.83;3.70;;;;;;;8.77;63.32;99788.94;5113791;27;39859;-76
2022/03/28 01:21:49;;;;;;;5.30;3.90;;;;;;;8.74;62.86;99789.03;5130997;27;41994;-74
2022/03/28 01:24:16;;;;;;;6.10;4.07;;;;;;;8.71;62.84;99783.88;5113349;27;42913;-76
2022/03/28 01:26:44;;;;;;;7.03;4.00;;;;;;;8.66;64.66;99772.63;5130730;27;41595;-77
2022/03/28 01:29:14;;;;;;;5.73;3.60;;;;;;;8.65;64.95;99768.28;5132251;27;41651;-76
2022/03/28 01:31:42;;;;;;;7.27;4.37;;;;;;;8.64;64.37;99777.13;5113049;27;42554;-74
2022/03/28 01:34:17;;;;;;;5.53;4.10;;;;;;;8.60;64.32;99783.44;5131549;27;43491;-73
2022/03/28 01:36:47;;;;;;;6.43;4.23;;;;;;;8.56;63.76;99781.84;5111944;27;43278;-76
2022/03/28 01:39:16;;;;;;;4.67;3.40;;;;;;;8.51;63.11;99778.53;5130789;27;40887;-74
2022/03/28 01:41:44;;;;;;;6.03;3.40;;;;;;;8.45;63.14;99778.75;5112688;27;42359;-75
2022/03/28 01:44:12;;;;;;;6.63;3.70;;;;;;;8.44;63.10;99782.31;5117092;27;43081;-76
2022/03/28 01:46:41;;;;;;;4.27;3.30;;;;;;;8.41;63.16;99782.44;5099755;27;41151;-74
2022/03/28 01:49:09;;;;;;;5.60;3.90;;;;;;;8.36;63.01;99779.13;5134333;27;40915;-75
2022/03/28 01:51:36;;;;;;;5.03;3.27;;;;;;;8.32;62.72;99782.78;5135444;27;41871;-77
2022/03/28 01:54:04;;;;;;;5.73;3.37;;;;;;;8.27;62.78;99775.91;5099848;27;42251;-77
2022/03/28 01:56:34;;;;;;;4.27;2.90;;;;;;;8.22;62.53;99780.47;5118412;27;42635;-76
2022/03/28 01:59:02;;;;;;;5.80;3.33;;;;;;;8.18;62.83;99778.88;5134423;27;41882;-78
2022/03/28 02:01:30;;;;;;;3.33;2.90;;;;;;;8.14;63.72;99768.50;5116362;27;39966;-74
2022/03/28 02:03:58;;;;;;;3.47;2.87;;;;;;;8.08;63.90;99758.16;5098623;27;43512;-76
2022/03/28 02:06:26;;;;;;;5.67;3.40;;;;;;;8.07;64.33;99757.31;5134773;27;42039;-74
2022/03/28 02:08:54;;;;;;;7.97;4.37;;;;;;;8.02;64.04;99755.78;5133360;27;41329;-75
2022/03/28 02:11:22;;;;;;;5.30;3.50;;;;;;;7.92;63.84;99757.88;5116198;27;41494;-75
2022/03/28 02:13:51;;;;;;;5.87;4.00;;;;;;;7.93;64.43;99751.69;5116387;27;42681;-72
2022/03/28 02:16:19;;;;;;;6.93;3.73;;;;;;;7.83;63.70;99745.91;5134607;27;43069;-77
2022/03/28 02:18:47;;;;;;;5.83;3.40;;;;;;;7.52;63.87;99696.09;5124285;27;40905;-75
2022/03/28 02:21:14;;;;;;;5.93;3.93;;;;;;;7.88;64.45;99761.56;5095883;28;42475;-75
2022/03/28 02:23:42;;;;;;;5.13;3.30;;;;;;;7.84;64.12;99760.81;5132750;27;43955;-74
2022/03/28 02:26:10;;;;;;;3.67;2.70;;;;;;;7.71;63.80;99746.34;5116070;27;44033;-74
2022/03/28 02:28:37;;;;;;;6.87;4.47;;;;;;;7.77;63.70;99754.06;5134442;27;40838;-76
2022/03/28 02:31:10;;;;;;;5.17;3.17;;;;;;;7.74;63.63;99754.16;5134320;27;41861;-77
2022/03/28 02:33:37;;;;;;;5.20;3.77;;;;;;;7.72;63.58;99761.25;5116076;27;42934;-74
2022/03/28 02:36:06;;;;;;;7.27;4.70;;;;;;;7.67;63.83;99754.41;5099012;27;42701;-73
2022/03/28 02:38:34;;;;;;;4.90;3.33;;;;;;;7.64;64.07;99758.06;5087867;28;39784;-75
2022/03/28 02:41:01;;;;;;;6.77;4.43;;;;;;;7.61;64.06;99758.16;5109948;27;42474;-73
2022/03/28 02:43:29;;;;;;;4.53;3.10;;;;;;;7.57;63.99;99756.53;5116110;27;43607;-72
2022/03/28 02:45:57;;;;;;;4.80;3.60;;;;;;;7.54;63.86;99754.88;5134406;27;42090;-74
2022/03/28 02:48:26;;;;;;;4.73;3.30;;;;;;;7.53;64.01;99753.19;5115484;27;40040;-73
2022/03/28 02:50:54;;;;;;;5.67;3.37;;;;;;;7.50;64.02;99748.00;5147237;27;41688;-75
2022/03/28 02:53:21;;;;;;;5.90;3.70;;;;;;;7.35;64.10;99730.09;5133832;27;42836;-76
2022/03/28 02:55:49;;;;;;;4.10;2.87;;;;;;;7.39;63.99;99737.00;5115511;27;43088;-77
2022/03/28 02:58:17;;;;;;;6.37;3.77;;;;;;;7.39;65.34;99725.59;5115336;27;40724;-73
2022/03/28 03:00:45;;;;;;;6.87;4.43;;;;;;;7.37;64.88;99733.53;5133090;27;42423;-74
2022/03/28 03:03:12;;;;;;;4.80;3.80;;;;;;;7.31;64.58;99727.63;5115401;27;42127;-75
2022/03/28 03:05:43;;;;;;;5.90;3.70;;;;;;;7.31;64.51;99732.88;5114937;27;43067;-72
2022/03/28 03:08:10;;;;;;;4.30;3.03;;;;;;;7.28;64.53;99725.97;5098608;27;41197;-73
2022/03/28 03:10:38;;;;;;;4.77;3.37;;;;;;;7.24;64.45;99724.34;5133800;27;41698;-75
2022/03/28 03:13:06;;;;;;;5.00;3.57;;;;;;;7.21;64.40;99724.44;5115118;27;41671;-76
2022/03/28 03:15:34;;;;;;;4.33;3.03;;;;;;;7.17;64.63;99730.75;5133804;27;42554;-74
2022/03/28 03:18:01;;;;;;;5.20;3.40;;;;;;;7.14;64.66;99715.06;5115351;27;40213;-75
2022/03/28 03:20:29;;;;;;;5.70;3.60;;;;;;;7.03;64.66;99707.53;5115318;27;41428;-76
2022/03/28 03:22:58;;;;;;;5.20;3.80;;;;;;;7.08;64.45;99723.16;5115446;27;43511;-73
2022/03/28 03:25:26;;;;;;;5.20;3.33;;;;;;;7.06;64.53;99727.59;5115372;27;43235;-74
2022/03/28 03:27:54;;;;;;;6.13;3.30;;;;;;;7.02;64.72;99734.78;5133821;27;41871;-75
2022/03/28 03:30:22;;;;;;;5.40;3.37;;;;;;;6.99;64.43;99728.75;5115223;27;42078;-74
2022/03/28 03:32:50;;;;;;;5.07;2.77;;;;;;;6.95;64.28;99727.13;5115370;27;42895;-73
2022/03/28 03:35:17;;;;;;;3.17;2.70;;;;;;;6.93;64.80;99721.03;5133661;27;43779;-74
2022/03/28 03:37:45;;;;;;;4.70;4.10;;;;;;;6.91;65.15;99714.97;5133524;27;42050;-74
2022/03/28 03:40:14;;;;;;;8.03;3.60;;;;;;;6.88;66.55;99701.91;5114816;27;41750;-73
2022/03/28 03:42:42;;;;;;;5.23;3.63;;;;;;;6.89;66.38;99703.63;5133286;27;43524;-73
2022/03/28 03:45:10;;;;;;;6.00;3.53;;;;;;;6.87;66.18;99708.09;5115287;27;40930;-77
2022/03/28 03:47:38;;;;;;;5.87;3.63;;;;;;;6.85;66.22;99709.00;5114981;27;41985;-76
2022/03/28 03:50:07;;;;;;;4.70;3.40;;;;;;;6.83;65.79;99710.81;5116572;27;42079;-73
2022/03/28 03:52:35;;;;;;;6.73;3.70;;;;;;;6.74;65.80;99703.25;5097712;27;41995;-72
2022/03/28 03:55:04;;;;;;;7.70;5.40;;;;;;;6.75;65.74;99710.22;5114993;27;41560;-75
2022/03/28 03:57:33;;;;;;;5.63;4.30;;;;;;;6.69;65.40;99699.88;5096557;27;39989;-75
2022/03/28 04:00:01;;;;;;;5.17;3.30;;;;;;;6.66;65.26;99707.91;5114768;27;41436;-74
2022/03/28 04:02:28;;;;;;;4.60;3.73;;;;;;;6.61;65.18;99701.91;5133269;27;42903;-75
2022/03/28 04:04:56;;;;;;;5.03;3.87;;;;;;;6.56;65.26;99703.84;5117423;27;41305;-74
2022/03/28 04:07:24;;;;;;;3.87;3.17;;;;;;;6.51;64.99;99708.41;5117597;27;41916;-76
2022/03/28 04:09:51;;;;;;;3.80;2.50;;;;;;;6.48;65.31;99703.22;5118035;27;42372;-75
2022/03/28 04:12:19;;;;;;;3.80;2.83;;;;;;;6.45;65.13;99692.78;5117815;27;42530;-72
2022/03/28 04:14:48;;;;;;;4.20;3.20;;;;;;;6.41;65.32;99696.47;5115939;27;42451;-74
2022/03/28 04:17:16;;;;;;;5.27;3.53;;;;;;;6.39;65.46;99693.00;5115652;27;41868;-74
2022/03/28 04:19:43;;;;;;;5.27;3.27;;;;;;;6.35;65.24;99691.38;5113507;27;41732;-75
2022/03/28 04:22:11;;;;;;;6.73;4.13;;;;;;;6.32;65.17;99691.47;5132699;27;43589;-77
2022/03/28 04:24:38;;;;;;;5.60;3.93;;;;;;;6.28;65.35;99680.22;5114353;27;41511;-73
2022/03/28 04:27:06;;;;;;;3.97;2.83;;;;;;;6.26;65.31;99691.69;5113996;27;39942;-74
2022/03/28 04:29:34;;;;;;;6.70;4.23;;;;;;;6.22;65.44;99687.41;5114298;27;40493;-75
2022/03/28 04:32:03;;;;;;;5.77;3.77;;;;;;;6.20;65.56;99683.97;5113251;27;44149;-74
2022/03/28 04:34:31;;;;;;;6.00;3.50;;;;;;;6.18;65.38;99685.81;5114283;27;42081;-74
2022/03/28 04:36:58;;;;;;;5.00;3.30;;;;;;;6.15;65.45;99675.38;5114065;27;40455;-74
2022/03/28 04:39:26;;;;;;;6.17;4.07;;;;;;;6.11;65.70;99675.47;5114284;27;42833;-73
2022/03/28 04:41:53;;;;;;;4.83;3.57;;;;;;;6.10;65.65;99675.50;5113734;27;44329;-77
2022/03/28 04:44:21;;;;;;;6.70;3.83;;;;;;;6.08;65.72;99687.84;5112884;27;41318;-74
2022/03/28 04:46:49;;;;;;;4.87;3.47;;;;;;;6.04;65.64;99673.94;5114343;27;40647;-74
2022/03/28 04:49:18;;;;;;;4.83;3.67;;;;;;;6.03;65.49;99677.47;5113079;27;40516;-74
2022/03/28 04:51:45;;;;;;;5.57;3.70;;;;;;;6.01;65.51;99675.81;5113475;27;41702;-75
2022/03/28 04:54:13;;;;;;;6.43;3.33;;;;;;;5.99;65.44;99683.75;5113885;27;42007;-73
2022/03/28 04:56:43;;;;;;;4.17;3.23;;;;;;;5.98;65.58;99689.03;5130637;27;40982;-77
2022/03/28 04:59:11;;;;;;;4.70;3.07;;;;;;;5.84;65.65;99660.50;5113689;27;41999;-72
2022/03/28 05:01:39;;;;;;;6.53;4.43;;;;;;;5.94;65.54;99690.88;5113738;27;43715;-75
2022/03/28 05:04:06;;;;;;;6.23;3.87;;;;;;;5.93;65.64;99683.94;5113233;27;41394;-73
2022/03/28 05:06:35;;;;;;;4.70;3.70;;;;;;;5.89;65.52;99682.31;5096134;27;41248;-74
2022/03/28 05:09:03;;;;;;;5.53;3.47;;;;;;;5.91;65.42;99688.38;5113608;27;40672;-73
2022/03/28 05:11:30;;;;;;;5.43;3.97;;;;;;;5.91;65.45;99684.88;5112136;27;43900;-75
2022/03/28 05:14:00;;;;;;;4.67;3.60;;;;;;;5.88;65.55;99680.56;5095899;27;42909;-76
2022/03/28 05:16:28;;;;;;;5.00;2.93;;;;;;;5.91;65.53;99688.38;5113272;27;41131;-75
2022/03/28 05:18:56;;;;;;;5.17;3.40;;;;;;;5.91;65.52;99685.75;5116631;27;42676;-76
2022/03/28 05:21:23;;;;;;;4.47;2.83;;;;;;;5.92;65.38;99682.22;5116839;27;42778;-74
2022/03/28 05:23:52;;;;;;;4.47;2.90;;;;;;;5.94;65.37;99687.41;5117125;27;41498;-74
2022/03/28 05:26:20;;;;;;;5.77;3.40;;;;;;;5.93;65.37;99685.72;5134567;27;40745;-73
2022/03/28 05:28:48;;;;;;;4.97;3.63;;;;;;;5.96;65.40;99682.97;5151650;27;42379;-74
2022/03/28 05:31:15;;;;;;;5.07;3.00;;;;;;;5.96;65.28;99683.81;5135118;27;43616;-75
2022/03/28 05:33:43;;;;;;;4.57;3.50;;;;;;;5.97;65.16;99685.53;5099791;27;42793;-74
2022/03/28 05:36:11;;;;;;;5.70;3.27;;;;;;;5.88;65.11;99671.78;5116839;27;41226;-77
2022/03/28 05:38:39;;;;;;;6.47;4.13;;;;;;;5.99;65.06;99685.50;5135511;27;41714;-76
2022/03/28 05:41:08;;;;;;;5.23;3.67;;;;;;;6.05;65.10;99688.81;5116710;27;43573;-76
2022/03/28 05:43:36;;;;;;;4.33;3.57;;;;;;;6.08;64.98;99683.44;5136344;27;40618;-72
2022/03/28 05:46:04;;;;;;;4.47;3.33;;;;;;;6.13;64.88;99680.69;5115832;27;40003;-75
2022/03/28 05:48:32;;;;;;;3.67;3.20;;;;;;;6.18;65.06;99683.19;5116682;27;41782;-72
2022/03/28 05:51:01;;;;;;;5.83;4.10;;;;;;;6.22;65.15;99684.78;5116377;27;41818;-74
2022/03/28 05:53:28;;;;;;;4.93;3.70;;;;;;;6.28;64.92;99687.25;5116872;27;42171;-75
2022/03/28 05:55:56;;;;;;;5.20;4.10;;;;;;;6.33;65.14;99682.66;5135143;27;41890;-73
2022/03/28 05:58:27;;;;;;;7.00;4.30;;;;;;;6.39;65.03;99687.75;5122007;27;20297;-78
2022/03/28 06:00:54;;;;;;;5.83;4.57;;;;;;;6.46;65.07;99691.88;5113784;27;44244;-74
2022/03/28 06:03:22;;;;;;;6.07;4.23;;;;;;;6.49;65.00;99678.63;5113113;27;42412;-78
2022/03/28 06:05:49;;;;;;;6.03;4.40;;;;;;;6.60;64.71;99691.44;5132706;27;41757;-76
2022/03/28 06:08:17;;;;;;;5.30;3.67;;;;;;;6.67;64.59;99700.88;5091456;27;41999;-76
2022/03/28 06:10:44;;;;;;;4.50;3.50;;;;;;;6.63;64.57;99671.16;5116426;27;42993;-76
2022/03/28 06:13:13;;;;;;;4.57;3.67;;;;;;;6.84;64.23;99685.34;5084677;27;43156;-75
2022/03/28 06:15:42;;;;;;;5.47;3.43;;;;;;;6.92;64.15;99690.38;5116056;27;41803;-74
2022/03/28 06:18:09;;;;;;;6.53;4.07;;;;;;;7.06;63.93;99691.59;5134083;27;42736;-76
2022/03/28 06:20:37;;;;;;;4.33;3.27;;;;;;;7.13;63.88;99682.59;5115393;27;42504;-76
2022/03/28 06:23:05;;;;;;;6.07;3.83;;;;;;;7.29;63.66;99685.53;5097983;27;43223;-75
2022/03/28 06:25:33;;;;;;;5.37;3.73;;;;;;;7.44;63.69;99684.97;5115148;27;42677;-75
2022/03/28 06:28:00;;;;;;;4.57;3.80;;;;;;;7.49;63.54;99664.59;5133745;27;41474;-76
2022/03/28 06:30:28;;;;;;;6.33;4.30;;;;;;;7.77;63.77;99685.50;5098136;27;41993;-79
2022/03/28 06:32:57;;;;;;;6.23;4.20;;;;;;;7.83;63.80;99658.03;5115118;27;42126;-77
2022/03/28 06:35:25;;;;;;;7.27;5.43;;;;;;;8.09;63.91;99678.97;5116194;27;40030;-79
2022/03/28 06:37:53;;;;;;;9.40;4.50;;;;;;;8.24;63.88;99670.47;5114585;27;42147;-79
2022/03/28 06:40:22;;;;;;;7.00;4.67;;;;;;;8.41;64.06;99667.16;5134143;27;42738;-80
2022/03/28 06:42:50;;;;;;;6.10;4.73;;;;;;;8.61;63.79;99675.13;5114964;27;41329;-74
2022/03/28 06:45:17;;;;;;;6.30;4.63;;;;;;;8.78;63.76;99669.13;5119290;27;41639;-74
2022/03/28 06:47:51;;;;;;;8.27;5.67;;;;;;;8.97;63.60;99672.72;5133540;27;41738;-76
2022/03/28 06:50:21;;;;;;;7.27;4.80;;;;;;;9.19;63.14;99671.78;5115248;27;43824;-78
2022/03/28 06:52:48;;;;;;;7.20;5.57;;;;;;;9.39;63.44;99666.50;5133497;27;43433;-83
2022/03/28 06:55:16;;;;;;;7.53;5.37;;;;;;;9.49;63.46;99646.63;5114987;27;41315;-75
2022/03/28 06:57:44;;;;;;;8.33;5.30;;;;;;;9.85;63.37;99670.53;5115120;27;40655;-78
2022/03/28 07:00:13;;;;;;;7.23;5.87;;;;;;;10.11;62.63;99666.66;5116120;27;42685;-81
2022/03/28 07:02:41;;;;;;;8.17;5.67;;;;;;;10.45;61.83;99668.56;5133704;27;42205;-77
2022/03/28 07:05:10;;;;;;;8.37;5.63;;;;;;;10.78;61.22;99676.63;5133165;27;40956;-77
2022/03/28 07:07:44;;;;;;;9.23;5.90;;;;;;;11.00;61.21;99666.63;5115365;27;41808;-80
2022/03/28 07:10:12;;;;;;;12.67;5.83;;;;;;;11.39;60.11;99665.50;5115382;27;43211;-79
2022/03/28 07:12:40;;;;;;;7.40;5.73;;;;;;;12.21;58.63;99669.00;5114596;27;42200;-74
2022/03/28 07:15:11;;;;;;;10.43;6.37;;;;;;;13.51;55.65;99692.31;5132756;27;40849;-75
2022/03/28 07:17:51;;;;;;;8.97;6.77;;;;;;;14.93;52.70;99693.91;5097341;27;41768;-79
2022/03/28 07:20:19;;;;;;;6.27;5.63;;;;;;;16.13;50.59;99696.19;5094143;27;44655;-76
2022/03/28 07:22:48;;;;;;;9.33;6.73;;;;;;;17.18;47.51;99713.31;5114688;27;42331;-78
2022/03/28 07:25:16;;;;;;;8.00;6.43;;;;;;;17.97;46.24;99711.66;5114663;27;40043;-78
2022/03/28 07:27:43;;;;;;;8.20;6.53;;;;;;;18.73;44.63;99712.69;5113763;27;41845;-77
2022/03/28 07:30:13;;;;;;;7.63;6.23;;;;;;;19.46;42.43;99712.72;5133271;27;42549;-77
2022/03/28 07:32:40;;;;;;;9.70;7.53;;;;;;;19.96;41.76;99718.28;5132696;27;42163;-79
2022/03/28 07:35:10;;;;;;;8.00;6.07;;;;;;;20.01;42.14;99716.06;5117592;27;41654;-79
2022/03/28 07:37:39;;;;;;;10.00;6.10;;;;;;;19.97;41.98;99696.63;5133119;27;41760;-79
2022/03/28 07:40:10;;;;;;;9.10;6.83;;;;;;;20.52;40.42;99720.50;5114960;27;43185;-80
2022/03/28 07:42:40;;;;;;;7.00;6.23;;;;;;;21.25;38.89;99725.44;5097733;27;42799;-80
2022/03/28 07:45:10;;;;;;;7.77;6.33;;;;;;;22.11;37.35;99712.78;5114438;27;40803;-83
2022/03/28 07:47:38;;;;;;;9.27;7.20;;;;;;;23.47;35.06;99746.03;5132492;27;42841;-79
2022/03/28 07:50:06;;;;;;;7.73;6.83;;;;;;;24.93;32.58;99746.91;5114715;27;42771;-82
2022/03/28 07:52:35;;;;;;;7.80;7.00;;;;;;;26.33;31.38;99748.44;5097384;27;40685;-77
2022/03/28 07:55:04;;;;;;;8.33;6.07;;;;;;;27.09;29.84;99755.03;5142763;27;40622;-78
2022/03/28 07:57:34;;;;;;;8.73;7.03;;;;;;;27.47;28.94;99759.50;5133586;27;42338;-82
2022/03/28 08:00:04;;;;;;;6.90;6.30;;;;;;;28.29;27.62;99753.34;5115014;27;42476;-76
2022/03/28 08:02:40;;;;;;;7.87;7.07;;;;;;;29.72;26.28;99768.06;5133609;27;43468;-75
2022/03/28 08:05:10;;;;;;;8.17;6.90;;;;;;;30.30;25.02;99740.34;5114154;27;40860;-78
2022/03/28 08:07:38;;;;;;;7.20;6.50;;;;;;;30.86;24.36;99758.53;5113429;27;42413;-77
2022/03/28 08:10:07;;;;;;;7.10;6.40;;;;;;;31.56;23.43;99763.56;5114831;27;43090;-79
2022/03/28 08:12:36;;;;;;;7.47;6.87;;;;;;;31.16;23.62;99750.88;5113975;27;43328;-81
2022/03/28 08:15:06;;;;;;;7.70;6.97;;;;;;;30.12;24.42;99741.94;5114681;27;40979;-80
2022/03/28 08:17:36;;;;;;;8.13;7.23;;;;;;;29.02;25.39;99741.53;5095450;27;41460;-79
2022/03/28 08:20:04;;;;;;;8.27;6.83;;;;;;;28.07;26.23;99712.34;5132680;27;42821;-76
2022/03/28 08:22:32;;;;;;;8.87;7.07;;;;;;;28.42;26.46;99720.84;5131718;27;42519;-77
2022/03/28 08:24:59;;;;;;;7.10;6.23;;;;;;;28.82;26.35;99717.56;5114924;27;41111;-80
2022/03/28 08:27:27;;;;;;;8.07;7.30;;;;;;;28.33;27.06;99711.06;5114392;27;42739;-85
2022/03/28 08:29:56;;;;;;;9.80;7.30;;;;;;;27.82;27.59;99702.75;5114643;27;42575;-74
2022/03/28 08:32:24;;;;;;;9.83;8.67;;;;;;;28.07;27.24;99701.44;5113656;27;41511;-78
2022/03/28 08:34:52;;;;;;;7.87;7.17;;;;;;;29.15;25.94;99709.78;5148504;27;40633;-77
2022/03/28 08:37:20;;;;;;;8.83;7.93;;;;;;;30.32;24.62;99715.53;5114175;27;41592;-79
2022/03/28 08:39:49;;;;;;;8.37;7.57;;;;;;;31.14;24.00;99709.19;5132258;27;42541;-79
2022/03/28 08:42:17;;;;;;;7.63;6.93;;;;;;;32.36;23.01;99710.44;5132538;27;42392;-81
2022/03/28 08:44:44;;;;;;;7.68;6.97;;;;;;;33.75;21.09;99728.88;5113612;27;40149;-77
2022/03/28 08:47:17;;;;;;;7.10;6.50;;;;;;;34.84;20.78;99717.19;5114492;27;42521;-75
2022/03/28 08:49:47;;;;;;;7.38;6.60;;;;;;;35.81;19.41;99704.91;5095645;27;41322;-77
2022/03/28 08:52:16;;;;;;;6.72;6.15;;;;;;;36.69;18.25;99724.03;5114328;27;42561;-79
2022/03/28 08:54:44;;;;;;;7.03;6.32;;;;;;;37.09;17.87;99734.22;5144809;27;41928;-79
2022/03/28 08:57:13;;;;;;;7.57;6.38;;;;;;;37.67;17.79;99725.63;5138290;27;41245;-77
2022/03/28 08:59:41;;;;;;;7.60;5.90;;;;;;;38.79;17.16;99727.28;5117329;27;42862;-74
2022/03/28 09:02:32;;;;;;;7.53;6.82;;;;;;;39.30;16.25;99723.16;5117133;27;43140;-77
2022/03/28 09:05:01;;;;;;;8.05;6.45;;;;;;;38.02;16.96;99721.75;5113918;27;40873;-76
2022/03/28 09:07:29;;;;;;;9.10;8.13;;;;;;;36.58;17.39;99708.31;5134354;27;41645;-77
2022/03/28 09:09:58;;;;;;;7.57;6.97;;;;;;;36.22;18.56;99700.38;5136070;27;44012;-82
2022/03/28 09:12:26;;;;;;;9.45;7.68;;;;;;;36.42;18.69;99688.91;5117239;27;42376;-78
2022/03/28 09:14:59;;;;;;;7.85;7.05;;;;;;;36.59;18.27;99687.06;5117356;27;40397;-80
2022/03/28 09:17:26;;;;;;;6.95;6.00;;;;;;;37.55;17.33;99704.66;5099934;27;41047;-75
2022/03/28 09:19:58;;;;;;;7.93;7.22;;;;;;;38.06;16.90;99689.72;5134230;27;41720;-77
2022/03/28 09:22:28;;;;;;;7.55;6.85;;;;;;;38.18;16.93;99692.41;5116569;27;42237;-78
2022/03/28 09:24:58;;;;;;;7.43;6.82;;;;;;;37.95;17.00;99677.69;5135678;27;40515;-78
2022/03/28 09:27:28;;;;;;;7.45;6.65;;;;;;;37.77;17.00;99685.41;5135605;27;42465;-77
2022/03/28 09:30:01;;;;;;;8.18;7.13;;;;;;;36.77;18.31;99669.50;5134681;27;41171;-78
2022/03/28 09:32:31;;;;;;;7.60;6.45;;;;;;;35.87;18.92;99665.31;5143022;27;42569;-76
2022/03/28 09:35:09;;;;;;;7.28;6.57;;;;;;;36.29;18.17;99657.75;5117010;27;40494;-75
2022/03/28 09:37:57;;;;;;;7.25;6.55;;;;;;;35.31;18.90;99649.34;5116789;27;40954;-75
2022/03/28 09:40:40;;;;;;;7.70;6.90;;;;;;;34.56;19.50;99640.66;5114039;27;42403;-76
2022/03/28 09:43:16;;;;;;;8.83;7.07;;;;;;;34.23;20.04;99630.06;5137310;27;42413;-83
2022/03/28 09:45:48;;;;;;;8.23;6.77;;;;;;;34.03;20.21;99621.19;5117245;27;40385;-85
2022/03/28 09:48:16;;;;;;;7.13;6.43;;;;;;;33.23;20.77;99623.00;5113613;27;42687;-80
2022/03/28 09:50:48;;;;;;;9.23;6.57;;;;;;;32.77;21.55;99607.69;5117330;27;41746;-82
2022/03/28 09:53:20;;;;;;;7.47;6.27;;;;;;;32.68;21.93;99609.00;5131754;27;42473;-87
2022/03/28 09:55:54;;;;;;;7.33;6.53;;;;;;;31.95;22.45;99597.50;5134486;27;39858;-77
2022/03/28 09:58:36;;;;;;;8.27;6.57;;;;;;;31.54;23.28;99584.09;5116583;27;42278;-82
2022/03/28 10:01:07;;;;;;;9.87;7.83;;;;;;;31.32;22.71;99580.75;5116967;27;43364;-86
2022/03/28 10:03:37;;;;;;;7.30;6.60;;;;;;;30.90;23.48;99579.25;5115664;27;43851;-76
2022/03/28 10:06:08;;;;;;;7.70;6.90;;;;;;;30.87;23.24;99583.25;5116298;27;41014;-75
2022/03/28 10:08:37;;;;;;;8.97;6.97;;;;;;;30.51;23.35;99566.34;5099611;27;40636;-80
2022/03/28 10:11:06;;;;;;;6.23;5.63;;;;;;;30.80;23.18;99565.97;5115124;27;42702;-76
2022/03/28 10:13:34;;;;;;;6.70;6.07;;;;;;;30.98;23.30;99560.75;5115747;27;42273;-75
2022/03/28 10:16:03;;;;;;;8.10;6.87;;;;;;;31.06;22.89;99555.06;5098868;27;40575;-75
2022/03/28 10:18:32;;;;;;;6.93;6.23;;;;;;;31.00;23.69;99544.13;5115747;27;43338;-80
2022/03/28 10:21:02;;;;;;;8.80;7.17;;;;;;;30.74;23.63;99542.22;5099546;27;42194;-76
2022/03/28 10:23:37;;;;;;;7.87;7.07;;;;;;;30.96;23.03;99548.31;5116348;27;42226;-80
2022/03/28 10:26:09;;;;;;;7.83;6.70;;;;;;;31.70;23.02;99537.09;5099277;27;40303;-77
2022/03/28 10:28:38;;;;;;;6.70;5.63;;;;;;;32.73;21.75;99543.38;5146208;27;42526;-79
2022/03/28 10:31:23;;;;;;;6.63;5.93;;;;;;;33.29;20.76;99546.09;5115936;27;43144;-78
2022/03/28 10:33:54;;;;;;;7.73;6.70;;;;;;;33.28;21.28;99547.16;5112517;27;42273;-78
2022/03/28 10:36:29;;;;;;;6.93;5.80;;;;;;;33.82;20.98;99535.41;5132122;27;40826;-77
2022/03/28 10:39:38;;;;;;;6.83;6.10;;;;;;;34.74;20.45;99538.81;5112761;27;41797;-79
2022/03/28 10:42:17;;;;;;;6.97;6.27;;;;;;;35.96;18.50;99531.56;5095094;27;45010;-77
2022/03/28 10:44:47;;;;;;;7.43;5.60;;;;;;;35.78;18.87;99534.47;5115802;27;40649;-81
2022/03/28 10:47:15;;;;;;;6.90;6.30;;;;;;;35.77;19.07;99538.28;5134269;27;41281;-80
2022/03/28 10:49:44;;;;;;;7.23;5.87;;;;;;;36.29;18.95;99530.84;5098369;27;40626;-79
2022/03/28 10:52:16;;;;;;;6.57;5.87;;;;;;;37.01;17.79;99541.25;5098874;27;42710;-79
2022/03/28 10:54:51;;;;;;;5.93;5.18;;;;;;;38.09;16.01;99537.91;5130635;27;42382;-76
2022/03/28 10:57:27;;;;;;;6.78;6.18;;;;;;;39.19;15.52;99537.66;5098866;27;39983;-77
2022/03/28 11:00:03;;;;;;;5.50;5.00;;;;;;;39.56;14.60;99544.03;5113130;28;41515;-76
2022/03/28 11:02:32;;;;;;;4.13;3.70;;;;;;;39.94;14.39;99537.28;5112032;27;43811;-77
2022/03/28 11:05:08;;;;;;;4.55;3.92;;;;;;;40.73;12.84;99550.06;5133344;27;43351;-76
2022/03/28 11:07:35;;;;;;;4.57;4.18;;;;;;;41.25;13.01;99541.47;5134670;27;41889;-77
2022/03/28 11:10:07;;;;;;;5.20;4.68;;;;;;;41.53;12.79;99535.28;5133758;27;41503;-76
2022/03/28 11:12:37;;;;;;;5.13;4.63;;;;;;;41.63;12.77;99528.06;5148509;27;42584;-76
2022/03/28 11:15:13;;;;;;;4.35;3.95;;;;;;;41.41;13.49;99515.31;5140266;27;42332;-77
2022/03/28 11:17:53;;;;;;;5.88;5.38;;;;;;;41.26;12.95;99523.66;5113331;27;41883;-76
2022/03/28 11:20:22;;;;;;;5.55;5.10;;;;;;;41.98;12.54;99516.81;5115152;27;40764;-77
2022/03/28 11:22:54;;;;;;;5.82;5.25;;;;;;;42.69;12.36;99513.59;5097106;27;41592;-78
2022/03/28 11:25:46;;;;;;;4.97;4.57;;;;;;;43.31;11.79;99500.81;5109783;27;43419;-76
2022/03/28 11:28:25;;;;;;;5.13;4.68;;;;;;;44.02;11.93;99497.22;5127306;27;41970;-77
2022/03/28 11:30:58;;;;;;;5.93;5.00;;;;;;;44.66;10.87;99501.31;5130271;27;42506;-76
2022/03/28 11:33:38;;;;;;;5.43;4.93;;;;;;;45.21;11.44;99488.38;5129983;27;42825;-82
2022/03/28 11:36:08;;;;;;;6.25;5.65;;;;;;;45.80;10.40;99486.66;5145293;27;43226;-76
2022/03/28 11:38:39;;;;;;;6.57;5.63;;;;;;;44.98;10.18;99487.38;5151819;27;40780;-80
2022/03/28 11:41:12;;;;;;;6.00;5.38;;;;;;;43.56;11.77;99461.47;5149977;27;41997;-83
2022/03/28 11:43:42;;;;;;;6.22;5.63;;;;;;;42.29;12.11;99453.41;5117067;27;42830;-79
2022/03/28 11:46:14;;;;;;;5.60;5.10;;;;;;;42.52;12.55;99443.56;5102691;27;45218;-80
2022/03/28 11:48:56;;;;;;;6.93;6.28;;;;;;;43.80;11.83;99441.94;5114897;27;42207;-79
2022/03/28 11:51:25;;;;;;;6.13;5.63;;;;;;;44.99;10.98;99444.31;5112433;27;41402;-79